Time;durP1;ratioP1;P1;durP2;ratioP2;P2;SDS_P1;SDS_P2;PMS_P1;PMS_P2;Temp;Humidity;BMP_temperature;BMP_pressure;BME280_temperature;BME280_humidity;BME280_pressure;Samples;Min_cycle;Max_cycle;Signal;HPM_P1;HPM_P2
2021/10/15 04:01:04;;;;;;;11.43;9.07;;;13.10;99.90;;;;;;5667468;23;20499;-72
2021/10/15 04:03:30;;;;;;;12.73;10.13;;;13.10;99.90;;;;;;4954469;29;20527;-72
2021/10/15 04:05:57;;;;;;;9.90;8.77;;;13.10;99.90;;;;;;4955048;28;20485;-72
2021/10/15 04:08:24;;;;;;;12.00;10.30;;;13.10;99.90;;;;;;4954484;29;20469;-73
2021/10/15 04:10:51;;;;;;;9.67;8.53;;;13.10;99.90;;;;;;4955507;29;20826;-73
2021/10/15 04:13:18;;;;;;;14.07;9.27;;;13.10;99.90;;;;;;4955379;29;20890;-73
2021/10/15 04:15:44;;;;;;;10.10;9.17;;;13.10;99.90;;;;;;4952896;28;20496;-73
2021/10/15 04:18:12;;;;;;;11.55;9.93;;;13.00;99.90;;;;;;4936093;29;20472;-73
2021/10/15 04:20:39;;;;;;;11.83;9.43;;;13.00;99.90;;;;;;4936707;29;20264;-73
2021/10/15 04:23:06;;;;;;;11.90;10.70;;;12.90;99.90;;;;;;4936177;29;20496;-74
2021/10/15 04:25:33;;;;;;;11.93;9.33;;;12.90;99.90;;;;;;4936466;29;20540;-73
2021/10/15 04:28:00;;;;;;;12.43;8.97;;;12.90;99.90;;;;;;4936935;29;20532;-74
2021/10/15 04:30:26;;;;;;;11.03;9.93;;;12.90;99.90;;;;;;4936700;29;20544;-73
2021/10/15 04:32:53;;;;;;;10.00;9.10;;;12.80;99.90;;;;;;4936189;29;20843;-73
2021/10/15 04:35:21;;;;;;;10.30;9.20;;;12.80;99.90;;;;;;4935785;29;20493;-72
2021/10/15 04:37:48;;;;;;;10.17;9.17;;;12.80;99.90;;;;;;4935183;29;20469;-72
2021/10/15 04:40:15;;;;;;;10.43;9.33;;;12.90;99.90;;;;;;4934747;29;20521;-72
2021/10/15 04:42:41;;;;;;;10.97;9.53;;;12.90;99.90;;;;;;4934796;29;20473;-73
2021/10/15 04:45:09;;;;;;;11.90;9.37;;;12.80;99.90;;;;;;4935106;29;20878;-72
2021/10/15 04:47:36;;;;;;;10.80;8.10;;;12.80;99.90;;;;;;4935033;29;20461;-73
2021/10/15 04:50:04;;;;;;;11.40;9.10;;;12.80;99.90;;;;;;4934956;29;20967;-73
2021/10/15 04:52:32;;;;;;;9.93;9.03;;;12.80;99.90;;;;;;4934267;29;20493;-73
2021/10/15 04:54:59;;;;;;;10.33;9.40;;;12.80;99.90;;;;;;4934521;29;20889;-74
2021/10/15 04:57:25;;;;;;;11.37;10.17;;;12.80;99.90;;;;;;4935142;29;21057;-73
2021/10/15 04:59:52;;;;;;;12.63;10.13;;;12.80;99.90;;;;;;4935452;29;20477;-73
2021/10/15 05:02:19;;;;;;;12.05;10.35;;;12.80;99.90;;;;;;4934565;29;20505;-74
2021/10/15 05:04:46;;;;;;;12.00;10.15;;;12.80;99.90;;;;;;4934630;29;20216;-73
2021/10/15 05:07:12;;;;;;;9.87;8.97;;;12.80;99.90;;;;;;4934234;29;20222;-72
2021/10/15 05:09:42;;;;;;;10.85;9.85;;;12.80;99.90;;;;;;4933872;29;20997;-73
2021/10/15 05:12:14;;;;;;;10.80;9.20;;;12.80;99.90;;;;;;4934545;29;20709;-73
2021/10/15 05:14:41;;;;;;;11.17;10.00;;;12.70;99.90;;;;;;4934779;29;20525;-73
2021/10/15 05:17:08;;;;;;;9.75;8.70;;;12.70;99.90;;;;;;4934581;29;20469;-72
2021/10/15 05:19:35;;;;;;;9.77;8.97;;;12.70;99.90;;;;;;4934466;29;20214;-73
2021/10/15 05:22:02;;;;;;;11.33;9.00;;;12.70;99.90;;;;;;4934694;29;20495;-74
2021/10/15 05:24:29;;;;;;;11.50;10.30;;;12.80;99.90;;;;;;4933830;29;20533;-74
2021/10/15 05:26:57;;;;;;;10.27;9.20;;;12.80;99.90;;;;;;4935490;29;20470;-73
2021/10/15 05:29:24;;;;;;;9.77;8.77;;;12.80;99.90;;;;;;4935257;29;20469;-73
2021/10/15 05:31:51;;;;;;;9.40;8.37;;;12.80;99.90;;;;;;4934104;29;20497;-73
2021/10/15 05:34:17;;;;;;;9.53;8.73;;;12.80;99.90;;;;;;4934313;29;20536;-73
2021/10/15 05:36:44;;;;;;;10.00;8.20;;;12.90;99.90;;;;;;4934547;29;20544;-73
2021/10/15 05:39:11;;;;;;;8.90;8.00;;;12.90;99.90;;;;;;4933751;29;20532;-73
2021/10/15 05:41:37;;;;;;;8.80;8.00;;;12.90;99.90;;;;;;4934845;29;20548;-74
2021/10/15 05:44:06;;;;;;;10.23;7.67;;;12.90;99.90;;;;;;4934421;29;20521;-74
2021/10/15 05:46:33;;;;;;;9.10;8.33;;;12.90;99.90;;;;;;4935208;29;20473;-73
2021/10/15 05:49:00;;;;;;;9.87;8.90;;;12.90;99.90;;;;;;4934385;29;20784;-74
2021/10/15 05:51:27;;;;;;;11.43;8.07;;;12.90;99.90;;;;;;4934484;29;20597;-74
2021/10/15 05:53:57;;;;;;;10.00;8.50;;;12.90;99.90;;;;;;4932386;29;20474;-74
2021/10/15 05:56:40;;;;;;;9.30;8.00;;;13.00;99.90;;;;;;4934059;29;20525;-73
2021/10/15 05:59:07;;;;;;;12.30;7.90;;;13.00;99.90;;;;;;4933900;29;20473;-74
2021/10/15 06:01:35;;;;;;;9.03;8.13;;;13.00;99.90;;;;;;4934051;29;20527;-73
2021/10/15 06:15:09;;;;;;;9.93;8.93;;;13.10;99.90;;;;;;4934567;29;20465;-73
2021/10/15 06:17:42;;;;;;;16.63;9.60;;;13.10;99.90;;;;;;4934338;29;20493;-73
2021/10/15 06:20:11;;;;;;;9.90;8.20;;;13.10;99.90;;;;;;4934253;29;20476;-73
2021/10/15 06:22:38;;;;;;;7.97;7.37;;;13.10;99.90;;;;;;4934016;29;20469;-73
2021/10/15 06:25:05;;;;;;;10.93;8.27;;;13.10;99.90;;;;;;4933730;29;20461;-74
2021/10/15 06:27:32;;;;;;;8.00;7.47;;;13.10;99.90;;;;;;4934222;29;20478;-74
2021/10/15 06:29:59;;;;;;;7.77;7.10;;;13.10;99.90;;;;;;4934214;29;20469;-74
2021/10/15 06:32:27;;;;;;;7.87;7.13;;;13.10;99.90;;;;;;4933602;29;20548;-73
2021/10/15 06:34:53;;;;;;;10.20;7.83;;;13.10;99.90;;;;;;4933894;29;20876;-73
2021/10/15 06:37:20;;;;;;;7.87;6.50;;;13.10;99.90;;;;;;4933657;29;20485;-73
2021/10/15 06:39:47;;;;;;;8.50;7.40;;;13.10;99.90;;;;;;4933613;29;20540;-73
2021/10/15 06:42:14;;;;;;;7.20;6.70;;;13.10;99.90;;;;;;4934115;29;20626;-73
2021/10/15 06:44:40;;;;;;;9.93;7.90;;;13.10;99.90;;;;;;4933663;29;20470;-72
2021/10/15 06:47:07;;;;;;;7.57;6.10;;;13.10;99.90;;;;;;4934181;29;20529;-72
2021/10/15 06:49:35;;;;;;;7.83;7.20;;;13.10;99.90;;;;;;4933907;29;20465;-72
2021/10/15 06:52:02;;;;;;;7.23;6.50;;;13.10;99.90;;;;;;4933766;29;20560;-72
2021/10/15 06:54:29;;;;;;;11.33;6.90;;;13.10;99.90;;;;;;4932758;29;20469;-72
2021/10/15 06:56:56;;;;;;;7.93;6.30;;;13.20;99.90;;;;;;4933542;29;20493;-73
2021/10/15 06:59:23;;;;;;;6.30;5.80;;;13.20;99.90;;;;;;4933164;29;20465;-72
2021/10/15 07:01:50;;;;;;;7.10;6.40;;;13.20;99.90;;;;;;4933203;29;20886;-72
2021/10/15 07:04:17;;;;;;;6.93;6.33;;;13.20;99.90;;;;;;4933546;29;20465;-72
2021/10/15 07:06:45;;;;;;;7.70;7.00;;;13.20;99.90;;;;;;4936815;29;20838;-73
2021/10/15 07:09:12;;;;;;;9.53;6.00;;;13.20;99.90;;;;;;4936102;29;20974;-73
2021/10/15 07:11:39;;;;;;;7.27;6.60;;;13.10;99.90;;;;;;4939189;29;20870;-73
2021/10/15 07:14:05;;;;;;;8.00;6.80;;;13.10;99.90;;;;;;4937216;29;20501;-72
2021/10/15 07:16:33;;;;;;;7.87;7.03;;;13.10;99.90;;;;;;4937283;29;20497;-73
2021/10/15 07:19:00;;;;;;;6.57;6.17;;;13.10;99.90;;;;;;4937206;29;20477;-72
2021/10/15 07:21:26;;;;;;;7.73;6.97;;;13.10;99.90;;;;;;4937319;29;20493;-72
2021/10/15 07:23:54;;;;;;;6.37;5.83;;;13.10;99.90;;;;;;4936424;29;20990;-72
2021/10/15 07:26:21;;;;;;;7.33;6.83;;;13.00;99.90;;;;;;4937050;29;20885;-71
2021/10/15 07:28:48;;;;;;;7.78;6.95;;;13.00;99.90;;;;;;4936536;29;20473;-72
2021/10/15 07:31:14;;;;;;;8.40;7.70;;;12.90;99.90;;;;;;4936704;29;20713;-71
2021/10/15 07:33:41;;;;;;;10.85;8.02;;;12.90;99.90;;;;;;4936618;29;20470;-72
2021/10/15 07:36:08;;;;;;;9.20;7.82;;;12.80;99.90;;;;;;4936722;29;20304;-72
2021/10/15 07:38:36;;;;;;;8.97;8.10;;;12.70;99.90;;;;;;4935820;29;20313;-71
2021/10/15 07:41:04;;;;;;;8.80;7.70;;;12.60;99.90;;;;;;4937101;29;20818;-71
2021/10/15 07:43:31;;;;;;;9.98;8.25;;;12.60;99.90;;;;;;4936414;29;20222;-72
2021/10/15 07:45:57;;;;;;;9.95;8.80;;;12.50;99.90;;;;;;4936763;29;20251;-72
2021/10/15 07:48:24;;;;;;;12.27;8.85;;;12.40;99.90;;;;;;4936559;29;20214;-72
2021/10/15 07:50:51;;;;;;;10.23;9.25;;;12.30;99.90;;;;;;4936607;29;20598;-72
2021/10/15 07:53:18;;;;;;;10.60;9.50;;;12.20;99.90;;;;;;4936393;29;20210;-72
2021/10/15 07:55:45;;;;;;;10.43;9.32;;;12.10;99.90;;;;;;4936790;29;20206;-72
2021/10/15 07:58:13;;;;;;;5.78;5.35;;;12.00;99.90;;;;;;4937212;29;20622;-73
2021/10/15 08:00:41;;;;;;;4.22;3.95;;;12.00;99.90;;;;;;4936894;29;20292;-73
2021/10/15 08:03:08;;;;;;;4.20;3.95;;;11.90;99.90;;;;;;4937374;29;20315;-72
2021/10/15 08:05:34;;;;;;;4.40;4.18;;;11.80;99.90;;;;;;4940110;29;20260;-72
2021/10/15 08:08:01;;;;;;;3.70;3.50;;;11.80;99.90;;;;;;4954502;28;20209;-71
2021/10/15 08:10:28;;;;;;;1.33;1.30;;;11.80;99.90;;;;;;4954323;29;20233;-71
2021/10/15 08:12:56;;;;;;;4.75;1.52;;;11.60;99.90;;;;;;4955190;29;20232;-71
2021/10/15 08:15:24;;;;;;;1.30;0.95;;;11.50;99.90;;;;;;4955173;29;20274;-71
2021/10/15 08:17:52;;;;;;;0.77;0.77;;;11.40;99.90;;;;;;4954429;28;20233;-72
2021/10/15 08:20:20;;;;;;;0.80;0.80;;;11.40;99.90;;;;;;4954736;29;20213;-72
2021/10/15 08:22:47;;;;;;;0.82;0.70;;;11.30;99.90;;;;;;4954087;29;20215;-71
2021/10/15 08:25:14;;;;;;;1.65;0.50;;;11.30;99.90;;;;;;4954400;29;20209;-72
2021/10/15 08:27:41;;;;;;;0.68;0.68;;;11.30;99.90;;;;;;4954674;29;20662;-71
2021/10/15 08:30:08;;;;;;;1.17;0.60;;;11.20;99.90;;;;;;4954443;29;20661;-72
2021/10/15 08:32:36;;;;;;;0.50;0.50;;;11.20;99.90;;;;;;4954499;29;20209;-72
2021/10/15 08:35:04;;;;;;;0.60;0.60;;;11.10;99.90;;;;;;4960667;29;20208;-73
2021/10/15 08:37:30;;;;;;;1.13;0.60;;;11.10;99.90;;;;;;4961989;29;20653;-73
2021/10/15 08:40:01;;;;;;;1.05;0.80;;;11.00;99.90;;;;;;4956258;29;20209;-73
2021/10/15 08:42:27;;;;;;;0.95;0.60;;;11.00;99.90;;;;;;4956004;29;20234;-73
2021/10/15 08:44:54;;;;;;;0.95;0.70;;;11.00;99.90;;;;;;4955852;29;20228;-73
2021/10/15 08:47:21;;;;;;;0.70;0.70;;;11.00;99.90;;;;;;4955603;29;20585;-73
2021/10/15 08:49:49;;;;;;;0.50;0.50;;;11.00;99.90;;;;;;4955120;29;20552;-72
2021/10/15 08:52:16;;;;;;;1.60;1.60;;;11.10;99.90;;;;;;4953738;29;20772;-73
2021/10/15 08:54:45;;;;;;;8.95;8.55;;;11.00;99.90;;;;;;4950700;29;20232;-73
2021/10/15 08:57:13;;;;;;;6.00;5.80;;;11.00;99.90;;;;;;4935202;29;20316;-73
2021/10/15 08:59:42;;;;;;;4.50;4.20;;;11.00;99.90;;;;;;4935166;29;20210;-72
2021/10/15 09:02:13;;;;;;;9.50;8.02;;;11.00;99.90;;;;;;4934601;29;20371;-72
2021/10/15 09:04:49;;;;;;;7.60;6.70;;;11.10;99.90;;;;;;4934970;29;20438;-72
2021/10/15 09:07:19;;;;;;;5.65;5.10;;;11.20;99.90;;;;;;4937466;29;20676;-71
2021/10/15 09:09:47;;;;;;;3.70;3.40;;;11.10;99.90;;;;;;4934088;29;20205;-71
2021/10/15 09:12:16;;;;;;;1.40;1.30;;;11.10;99.90;;;;;;4934196;29;20316;-71
2021/10/15 09:14:44;;;;;;;7.20;6.90;;;11.10;99.90;;;;;;4934497;29;20214;-71
2021/10/15 09:17:14;;;;;;;5.85;5.55;;;11.20;99.90;;;;;;4934199;29;20726;-71
2021/10/15 09:19:43;;;;;;;1.88;1.88;;;11.10;99.90;;;;;;4934476;29;20217;-70
2021/10/15 09:22:23;;;;;;;4.55;4.25;;;11.00;99.90;;;;;;4933869;29;20261;-71
2021/10/15 09:24:53;;;;;;;4.10;3.67;;;10.90;99.90;;;;;;4934032;29;20217;-70
2021/10/15 09:27:26;;;;;;;2.75;2.55;;;10.90;99.90;;;;;;4934171;29;20639;-70
2021/10/15 09:29:56;;;;;;;2.70;2.60;;;10.90;99.90;;;;;;4934709;29;20221;-71
2021/10/15 09:32:25;;;;;;;1.70;1.70;;;10.90;99.90;;;;;;4934267;29;20465;-70
2021/10/15 09:34:53;;;;;;;2.03;1.95;;;10.80;99.90;;;;;;4933901;29;20276;-71
2021/10/15 09:37:23;;;;;;;4.72;3.25;;;10.90;99.90;;;;;;4933723;29;20229;-70
2021/10/15 09:39:50;;;;;;;1.95;1.85;;;10.90;99.90;;;;;;4933663;29;20216;-71
2021/10/15 09:42:28;;;;;;;2.55;2.45;;;11.00;99.90;;;;;;4933981;29;20237;-70
2021/10/15 09:45:01;;;;;;;2.10;2.10;;;11.00;99.90;;;;;;4934115;29;20210;-71
2021/10/15 09:47:28;;;;;;;1.40;1.30;;;11.00;99.90;;;;;;4934328;29;20292;-71
2021/10/15 09:49:57;;;;;;;1.75;1.00;;;11.00;99.90;;;;;;4934283;29;20238;-70
2021/10/15 09:52:33;;;;;;;1.10;1.10;;;10.90;99.90;;;;;;4933470;29;20238;-71
2021/10/15 09:55:04;;;;;;;0.90;0.90;;;10.90;99.90;;;;;;4934136;29;20237;-70
2021/10/15 09:57:33;;;;;;;1.08;1.08;;;11.00;99.90;;;;;;4933784;29;20233;-70
2021/10/15 10:00:00;;;;;;;2.40;0.88;;;11.00;99.90;;;;;;4934259;29;20210;-70
2021/10/15 10:02:28;;;;;;;0.70;0.70;;;11.00;99.90;;;;;;4933589;29;20241;-71
2021/10/15 10:04:56;;;;;;;1.27;1.05;;;11.20;99.90;;;;;;4933853;29;20290;-71
2021/10/15 10:07:24;;;;;;;1.73;1.73;;;11.10;99.90;;;;;;4933244;29;20261;-69
2021/10/15 10:09:53;;;;;;;3.20;2.47;;;11.20;99.90;;;;;;4933408;29;20220;-70
2021/10/15 10:12:23;;;;;;;1.75;1.75;;;11.20;99.90;;;;;;4933600;29;20234;-70
2021/10/15 10:14:49;;;;;;;1.50;1.40;;;11.10;99.90;;;;;;4933976;29;20221;-71
2021/10/15 10:17:22;;;;;;;1.08;0.77;;;11.20;99.90;;;;;;4933606;29;20643;-72
2021/10/15 10:19:52;;;;;;;1.60;1.13;;;11.20;99.90;;;;;;4933755;29;20670;-71
2021/10/15 10:22:20;;;;;;;1.73;1.40;;;11.20;99.90;;;;;;4933385;29;20234;-71
2021/10/15 10:24:52;;;;;;;1.50;1.10;;;11.20;99.90;;;;;;4933166;29;20250;-71
2021/10/15 10:27:33;;;;;;;1.75;0.77;;;11.30;99.90;;;;;;4933744;29;20220;-71
2021/10/15 10:30:00;;;;;;;3.10;0.90;;;11.40;99.90;;;;;;4933518;29;20228;-71
2021/10/15 10:32:28;;;;;;;2.92;1.08;;;11.50;99.90;;;;;;4933290;29;20237;-70
2021/10/15 10:34:55;;;;;;;2.17;1.73;;;11.60;99.90;;;;;;4933340;29;20209;-72
2021/10/15 10:37:22;;;;;;;4.20;2.22;;;11.60;99.90;;;;;;4933045;29;20226;-71
2021/10/15 10:40:06;;;;;;;6.10;1.00;;;11.60;99.90;;;;;;4933613;29;20213;-71
2021/10/15 10:42:34;;;;;;;1.85;1.17;;;11.60;99.90;;;;;;4937110;29;20280;-71
2021/10/15 10:45:11;;;;;;;2.88;1.00;;;11.60;99.90;;;;;;4937412;29;20276;-71
2021/10/15 10:47:38;;;;;;;1.17;0.70;;;11.60;99.90;;;;;;4937158;29;20210;-71
2021/10/15 10:50:12;;;;;;;2.00;1.60;;;11.50;99.90;;;;;;4937167;29;20217;-70
2021/10/15 10:53:09;;;;;;;2.83;1.30;;;11.60;99.90;;;;;;4936759;29;20213;-71
2021/10/15 10:55:42;;;;;;;3.95;1.30;;;11.60;99.90;;;;;;4936707;29;20205;-71
2021/10/15 10:58:33;;;;;;;1.75;1.10;;;11.70;99.90;;;;;;4936999;29;20234;-71
2021/10/15 11:01:21;;;;;;;5.95;1.42;;;11.70;99.90;;;;;;4936808;29;20233;-71
2021/10/15 11:03:48;;;;;;;4.25;1.58;;;11.80;99.90;;;;;;4936822;29;20210;-71
2021/10/15 11:06:15;;;;;;;1.50;1.40;;;11.90;99.90;;;;;;4937037;29;20526;-71
2021/10/15 11:08:42;;;;;;;3.50;1.20;;;12.00;99.90;;;;;;4936022;29;20221;-71
2021/10/15 11:11:45;;;;;;;2.45;1.50;;;12.00;99.90;;;;;;4936707;29;20325;-71
2021/10/15 11:14:50;;;;;;;1.98;1.48;;;12.00;99.90;;;;;;4936758;29;20407;-71
2021/10/15 11:17:20;;;;;;;4.82;1.77;;;12.00;99.90;;;;;;4936904;29;20268;-70
2021/10/15 11:19:47;;;;;;;7.53;1.98;;;12.10;99.90;;;;;;4936882;29;20214;-71
2021/10/15 11:22:14;;;;;;;4.57;1.40;;;12.20;99.90;;;;;;4935974;29;20229;-71
2021/10/15 11:24:55;;;;;;;5.18;2.15;;;12.20;99.90;;;;;;4936094;29;20212;-71
2021/10/15 11:27:21;;;;;;;7.53;1.42;;;12.30;99.90;;;;;;4936730;29;20206;-71
2021/10/15 11:29:57;;;;;;;5.07;1.58;;;12.30;99.90;;;;;;4936447;29;20213;-71
2021/10/15 11:32:32;;;;;;;3.45;3.25;;;12.40;99.90;;;;;;4936057;29;20251;-71
2021/10/15 11:35:11;;;;;;;10.32;1.92;;;12.50;99.90;;;;;;4936405;29;20209;-71
2021/10/15 11:37:49;;;;;;;3.60;1.17;;;12.50;99.90;;;;;;4935900;29;20636;-71
2021/10/15 11:40:19;;;;;;;3.53;1.70;;;12.50;99.90;;;;;;4936291;29;20260;-71
2021/10/15 11:42:47;;;;;;;5.23;1.30;;;12.60;99.90;;;;;;4936216;29;20725;-71
2021/10/15 11:45:27;;;;;;;14.00;2.05;;;12.70;99.90;;;;;;4936688;29;20473;-72
2021/10/15 11:48:07;;;;;;;4.73;2.37;;;12.90;99.90;;;;;;4936136;29;20205;-71
2021/10/15 11:50:49;;;;;;;4.83;1.87;;;13.00;99.90;;;;;;4936090;29;20556;-70
2021/10/15 11:53:18;;;;;;;9.07;2.37;;;13.10;99.90;;;;;;4934477;29;20465;-70
2021/10/15 11:55:46;;;;;;;3.27;1.20;;;13.10;99.90;;;;;;4935726;29;20616;-69
2021/10/15 11:58:24;;;;;;;5.63;1.50;;;13.20;99.90;;;;;;4935885;29;20597;-69
2021/10/15 12:00:58;;;;;;;5.23;1.40;;;13.20;99.90;;;;;;4935907;29;20994;-72
2021/10/15 12:03:30;;;;;;;3.37;2.00;;;13.20;99.90;;;;;;4935604;29;20469;-72
2021/10/15 12:05:57;;;;;;;4.80;1.73;;;13.20;99.90;;;;;;4936868;29;20481;-71
2021/10/15 12:08:25;;;;;;;11.07;2.10;;;13.30;99.90;;;;;;4935993;29;20594;-71
2021/10/15 12:10:52;;;;;;;3.90;1.73;;;13.40;99.90;;;;;;4935929;29;20921;-72
2021/10/15 12:13:20;;;;;;;13.30;1.80;;;13.60;99.90;;;;;;4935554;29;20988;-72
2021/10/15 12:15:46;;;;;;;3.27;1.13;;;13.60;99.90;;;;;;4936110;29;20536;-72
2021/10/15 12:18:18;;;;;;;4.30;1.60;;;13.60;99.90;;;;;;4935303;29;20494;-72
2021/10/15 12:20:45;;;;;;;5.87;1.50;;;13.60;99.90;;;;;;4935869;29;20516;-72
2021/10/15 12:23:11;;;;;;;5.50;1.80;;;13.60;99.90;;;;;;4935274;29;20908;-72
2021/10/15 12:25:39;;;;;;;4.43;1.53;;;13.50;99.90;;;;;;4935263;29;20552;-72
2021/10/15 12:28:13;;;;;;;3.03;1.70;;;13.40;99.90;;;;;;4935492;29;21018;-72
2021/10/15 12:30:40;;;;;;;8.90;1.93;;;13.40;99.90;;;;;;4935287;29;20499;-72
2021/10/15 12:33:09;;;;;;;1.50;1.33;;;13.40;99.90;;;;;;4935462;29;20465;-71
2021/10/15 12:35:37;;;;;;;4.87;1.70;;;13.40;99.90;;;;;;4935384;29;20584;-71
2021/10/15 12:38:04;;;;;;;7.80;1.70;;;13.40;99.90;;;;;;4935148;29;20489;-72
2021/10/15 12:40:38;;;;;;;7.00;1.20;;;13.40;99.90;;;;;;4934921;29;20518;-72
2021/10/15 12:43:16;;;;;;;3.90;1.53;;;13.50;99.90;;;;;;4935405;29;20580;-71
2021/10/15 12:45:55;;;;;;;8.00;1.90;;;13.50;99.90;;;;;;4935417;29;20516;-72
2021/10/15 12:48:24;;;;;;;2.10;1.10;;;13.50;99.90;;;;;;4935310;29;20465;-71
2021/10/15 12:51:04;;;;;;;4.67;1.60;;;13.60;99.90;;;;;;4935304;29;20489;-71
2021/10/15 12:53:40;;;;;;;5.27;1.23;;;13.70;99.90;;;;;;4934226;29;20686;-72
2021/10/15 12:56:14;;;;;;;3.73;3.40;;;13.70;99.90;;;;;;4934752;29;20469;-71
2021/10/15 12:58:50;;;;;;;2.67;1.20;;;13.70;99.90;;;;;;4935112;29;20552;-71
2021/10/15 13:01:22;;;;;;;5.63;1.70;;;13.70;99.90;;;;;;4934910;29;20532;-71
2021/10/15 13:03:49;;;;;;;1.53;0.90;;;13.70;99.90;;;;;;4934658;29;20477;-71
2021/10/15 13:06:17;;;;;;;1.73;1.00;;;13.80;99.90;;;;;;4934954;29;20481;-71
2021/10/15 13:08:49;;;;;;;0.90;0.90;;;13.80;99.90;;;;;;4934259;29;20469;-69
2021/10/15 13:11:17;;;;;;;3.07;1.13;;;13.70;99.90;;;;;;4934733;29;20497;-71
2021/10/15 13:13:44;;;;;;;2.53;1.47;;;13.70;99.90;;;;;;4934331;29;20968;-70
2021/10/15 13:16:11;;;;;;;4.80;2.20;;;13.70;99.90;;;;;;4934961;29;20477;-70
2021/10/15 13:18:38;;;;;;;1.33;1.20;;;13.70;99.90;;;;;;4935017;29;20493;-72
2021/10/15 13:21:04;;;;;;;3.00;1.73;;;13.70;99.90;;;;;;4934950;29;20485;-69
2021/10/15 13:23:33;;;;;;;3.20;1.30;;;13.70;99.90;;;;;;4933316;29;20954;-70
2021/10/15 13:26:00;;;;;;;5.63;2.67;;;13.70;99.90;;;;;;4934539;29;20473;-68
2021/10/15 13:28:26;;;;;;;3.70;2.00;;;13.70;99.90;;;;;;4934475;29;20480;-70
2021/10/15 13:30:54;;;;;;;2.90;1.67;;;13.60;99.90;;;;;;4934253;29;20485;-69
2021/10/15 13:33:21;;;;;;;19.63;3.60;;;13.60;99.90;;;;;;4933928;29;20835;-70
2021/10/15 13:35:51;;;;;;;3.23;1.50;;;13.70;99.90;;;;;;4934356;29;20466;-70
2021/10/15 13:38:20;;;;;;;2.23;2.07;;;13.70;99.90;;;;;;4933726;29;20489;-70
2021/10/15 13:40:58;;;;;;;2.13;1.63;;;13.70;99.90;;;;;;4933961;29;20541;-70
2021/10/15 13:43:32;;;;;;;6.00;4.30;;;13.60;99.90;;;;;;4934024;29;20819;-69
2021/10/15 13:46:03;;;;;;;2.43;1.13;;;13.60;99.90;;;;;;4934136;29;20596;-70
2021/10/15 13:51:14;;;;;;;5.50;2.00;;;13.70;99.90;;;;;;4934126;29;20475;-69
2021/10/15 13:53:42;;;;;;;3.17;1.87;;;13.60;99.90;;;;;;4932964;29;20997;-69
2021/10/15 13:56:10;;;;;;;3.83;2.80;;;13.60;99.90;;;;;;4933976;29;20501;-69
2021/10/15 13:58:38;;;;;;;4.30;2.00;;;13.60;99.90;;;;;;4934175;29;20497;-70
2021/10/15 14:01:08;;;;;;;6.10;2.30;;;13.70;99.90;;;;;;4934405;29;20527;-71
2021/10/15 14:06:23;;;;;;;6.23;1.17;;;13.80;99.90;;;;;;4918592;29;20481;-70
2021/10/15 14:08:49;;;;;;;1.67;0.77;;;13.90;99.90;;;;;;4935108;29;20462;-70
2021/10/15 14:11:19;;;;;;;2.83;1.40;;;13.90;99.90;;;;;;4934752;29;20848;-70
2021/10/15 14:13:46;;;;;;;1.30;1.20;;;13.90;99.90;;;;;;4934130;29;20880;-72
2021/10/15 14:16:18;;;;;;;3.30;1.07;;;13.80;99.90;;;;;;4933240;29;20837;-70
2021/10/15 14:18:45;;;;;;;7.00;2.97;;;13.80;99.90;;;;;;4933472;29;20583;-70
2021/10/15 14:21:11;;;;;;;8.03;2.33;;;13.80;99.90;;;;;;4933396;29;21056;-70
2021/10/15 14:23:38;;;;;;;7.53;1.30;;;13.80;99.90;;;;;;4938199;29;20563;-69
2021/10/15 14:26:05;;;;;;;8.07;2.57;;;13.80;99.90;;;;;;4952603;28;20945;-70
2021/10/15 14:28:33;;;;;;;2.40;1.30;;;13.70;99.90;;;;;;4952751;29;20510;-69
2021/10/15 14:31:01;;;;;;;9.97;1.87;;;13.80;99.90;;;;;;4952662;29;20854;-69
2021/10/15 14:33:30;;;;;;;2.93;1.50;;;13.70;99.90;;;;;;4952366;29;20464;-69
2021/10/15 14:35:56;;;;;;;7.00;2.10;;;13.60;99.90;;;;;;4952385;29;20555;-69
2021/10/15 14:38:23;;;;;;;4.27;2.40;;;13.60;99.90;;;;;;4951687;29;20497;-70
2021/10/15 14:40:50;;;;;;;6.60;1.70;;;13.50;99.90;;;;;;4952427;29;20473;-71
2021/10/15 14:43:17;;;;;;;3.33;1.20;;;13.50;99.90;;;;;;4952289;29;20465;-70
2021/10/15 14:45:45;;;;;;;3.10;1.40;;;13.50;99.90;;;;;;4952363;29;20949;-70
2021/10/15 14:48:12;;;;;;;4.57;2.03;;;13.50;99.90;;;;;;4952357;29;20568;-70
2021/10/15 14:50:40;;;;;;;3.10;2.50;;;13.40;99.90;;;;;;4952347;29;20493;-70
2021/10/15 14:53:06;;;;;;;3.33;2.60;;;13.40;99.90;;;;;;4952226;28;20956;-69
2021/10/15 14:55:34;;;;;;;7.83;2.40;;;13.40;99.90;;;;;;4952676;29;20464;-69
2021/10/15 14:58:01;;;;;;;6.60;1.97;;;13.30;99.90;;;;;;4952656;29;20504;-70
2021/10/15 15:00:27;;;;;;;5.70;3.17;;;13.30;99.90;;;;;;4952345;29;20492;-71
2021/10/15 15:02:55;;;;;;;7.40;3.90;;;13.30;99.90;;;;;;4952388;29;20472;-72
2021/10/15 15:05:22;;;;;;;5.33;4.70;;;13.20;99.90;;;;;;4952577;29;20472;-71
2021/10/15 15:07:49;;;;;;;5.27;1.73;;;13.20;99.90;;;;;;4952044;28;20476;-71
2021/10/15 15:10:16;;;;;;;4.80;2.57;;;13.20;99.90;;;;;;4952169;29;20539;-70
2021/10/15 15:12:43;;;;;;;5.73;2.27;;;13.10;99.90;;;;;;4948450;29;20624;-72
2021/10/15 15:15:10;;;;;;;5.77;1.87;;;13.00;99.90;;;;;;4933538;29;20465;-71
2021/10/15 15:17:38;;;;;;;3.70;2.00;;;12.90;99.90;;;;;;4933630;29;20532;-71
2021/10/15 15:20:09;;;;;;;4.25;1.45;;;12.80;99.90;;;;;;4933141;29;20515;-71
2021/10/15 15:22:36;;;;;;;3.88;2.65;;;12.70;99.90;;;;;;4932868;29;20355;-72
2021/10/15 15:25:04;;;;;;;3.03;2.03;;;12.70;99.90;;;;;;4932942;29;20281;-71
2021/10/15 15:27:30;;;;;;;4.07;1.53;;;12.60;99.90;;;;;;4936081;29;20954;-72
2021/10/15 15:29:57;;;;;;;3.25;1.70;;;12.60;99.90;;;;;;4936440;29;20473;-72
2021/10/15 15:32:24;;;;;;;3.37;2.40;;;12.50;99.90;;;;;;4936527;29;20234;-72
2021/10/15 15:34:50;;;;;;;3.70;2.00;;;12.50;99.90;;;;;;4936672;29;20950;-71
2021/10/15 15:37:19;;;;;;;3.35;1.85;;;12.40;99.90;;;;;;4936058;29;20643;-71
2021/10/15 15:39:45;;;;;;;5.75;3.95;;;12.30;99.90;;;;;;4936325;29;20309;-72
2021/10/15 15:42:12;;;;;;;5.03;3.28;;;12.20;99.90;;;;;;4936138;29;20669;-72
2021/10/15 15:44:41;;;;;;;3.97;3.75;;;12.20;99.90;;;;;;4936504;29;20206;-73
2021/10/15 15:47:09;;;;;;;4.93;2.40;;;12.10;99.90;;;;;;4936183;29;20245;-71
2021/10/15 15:49:39;;;;;;;2.92;1.60;;;12.10;99.90;;;;;;4936209;29;20296;-72
2021/10/15 15:52:09;;;;;;;3.15;1.50;;;12.00;99.90;;;;;;4936208;29;20244;-71
2021/10/15 15:54:38;;;;;;;2.75;1.58;;;12.00;99.90;;;;;;4935722;29;20237;-72
2021/10/15 15:57:05;;;;;;;2.75;1.08;;;11.90;99.90;;;;;;4935995;29;20218;-72
2021/10/15 15:59:32;;;;;;;4.88;1.83;;;11.80;99.90;;;;;;4936346;29;20236;-71
2021/10/15 16:02:00;;;;;;;2.38;1.92;;;11.80;99.90;;;;;;4935962;29;20242;-71
2021/10/15 16:04:26;;;;;;;7.40;2.92;;;11.80;99.90;;;;;;4936160;29;20213;-71
2021/10/15 16:06:53;;;;;;;8.85;2.58;;;11.70;99.90;;;;;;4935829;29;20300;-72
2021/10/15 16:09:20;;;;;;;8.30;1.83;;;11.60;99.90;;;;;;4935063;29;20632;-71
2021/10/15 16:11:48;;;;;;;1.27;1.05;;;11.60;99.90;;;;;;4935725;29;20289;-72
2021/10/15 16:14:15;;;;;;;4.15;1.65;;;11.60;99.90;;;;;;4935827;29;20214;-72
2021/10/15 16:16:42;;;;;;;3.63;2.05;;;11.50;99.90;;;;;;4937151;29;20209;-72
2021/10/15 16:19:09;;;;;;;7.35;2.20;;;11.40;99.90;;;;;;4936034;29;20233;-72
2021/10/15 16:21:35;;;;;;;7.80;3.50;;;11.40;99.90;;;;;;4935963;29;20242;-72
2021/10/15 16:24:03;;;;;;;4.25;1.45;;;11.40;99.90;;;;;;4934548;29;20360;-72
2021/10/15 16:26:30;;;;;;;3.15;1.50;;;11.30;99.90;;;;;;4935642;29;20304;-72
2021/10/15 16:28:58;;;;;;;6.32;3.45;;;11.30;99.90;;;;;;4935732;29;20210;-72
2021/10/15 16:31:25;;;;;;;6.18;2.20;;;11.30;99.90;;;;;;4935562;29;20289;-72
2021/10/15 16:33:52;;;;;;;4.97;1.90;;;11.20;99.90;;;;;;4935289;29;20284;-71
2021/10/15 16:36:18;;;;;;;9.10;2.15;;;11.20;99.90;;;;;;4935385;29;20221;-72
2021/10/15 16:38:45;;;;;;;6.03;2.85;;;11.20;99.90;;;;;;4933577;29;20245;-71
2021/10/15 16:41:12;;;;;;;1.90;1.80;;;11.10;99.90;;;;;;4935512;29;20570;-71
2021/10/15 16:43:39;;;;;;;5.35;1.73;;;11.00;99.90;;;;;;4935596;29;20202;-71
2021/10/15 16:46:09;;;;;;;6.95;2.80;;;11.00;99.90;;;;;;4935444;29;20261;-72
2021/10/15 16:48:37;;;;;;;4.13;1.83;;;10.90;99.90;;;;;;4934981;29;20642;-72
2021/10/15 16:51:04;;;;;;;6.13;2.92;;;10.90;99.90;;;;;;4935051;29;20272;-70
2021/10/15 16:53:31;;;;;;;3.55;2.25;;;10.80;99.90;;;;;;4933987;29;20206;-71
2021/10/15 16:55:58;;;;;;;7.88;2.00;;;10.80;99.90;;;;;;4935182;29;20216;-70
2021/10/15 16:58:24;;;;;;;5.35;1.70;;;10.70;99.90;;;;;;4934677;29;20213;-69
2021/10/15 17:00:51;;;;;;;6.97;2.10;;;10.70;99.90;;;;;;4934840;29;20245;-70
2021/10/15 17:03:19;;;;;;;5.75;3.05;;;10.70;99.90;;;;;;4934477;29;20281;-70
2021/10/15 17:05:46;;;;;;;5.35;1.45;;;10.70;99.90;;;;;;4934569;29;20213;-70
2021/10/15 17:08:15;;;;;;;2.10;2.00;;;10.60;99.90;;;;;;4934578;29;20639;-70
2021/10/15 17:10:42;;;;;;;4.43;1.77;;;10.60;99.90;;;;;;4934337;29;20425;-70